sensor_id;sensor_type;location;lat;lon;timestamp;P1;durP1;ratioP1;P2;durP2;ratioP2
48835;SDS011;62581;47.342;7.908;2023-02-10T00:01:09;66.43;;;28.20;;
48835;SDS011;62581;47.342;7.908;2023-02-10T00:03:37;63.13;;;27.38;;
48835;SDS011;62581;47.342;7.908;2023-02-10T00:06:04;64.30;;;28.17;;
48835;SDS011;62581;47.342;7.908;2023-02-10T00:08:33;68.25;;;28.38;;
48835;SDS011;62581;47.342;7.908;2023-02-10T00:11:02;67.80;;;28.25;;
48835;SDS011;62581;47.342;7.908;2023-02-10T00:13:30;65.68;;;27.90;;
48835;SDS011;62581;47.342;7.908;2023-02-10T00:16:00;63.08;;;29.02;;
48835;SDS011;62581;47.342;7.908;2023-02-10T00:18:28;62.15;;;27.73;;
48835;SDS011;62581;47.342;7.908;2023-02-10T00:20:56;63.95;;;28.77;;
48835;SDS011;62581;47.342;7.908;2023-02-10T00:23:23;61.58;;;27.98;;
48835;SDS011;62581;47.342;7.908;2023-02-10T00:25:50;65.82;;;28.15;;
48835;SDS011;62581;47.342;7.908;2023-02-10T00:28:17;63.53;;;28.65;;
48835;SDS011;62581;47.342;7.908;2023-02-10T00:30:44;65.82;;;27.27;;
48835;SDS011;62581;47.342;7.908;2023-02-10T00:33:12;63.13;;;26.83;;
48835;SDS011;62581;47.342;7.908;2023-02-10T00:35:39;63.00;;;27.48;;
48835;SDS011;62581;47.342;7.908;2023-02-10T00:38:06;63.67;;;27.48;;
48835;SDS011;62581;47.342;7.908;2023-02-10T00:40:33;67.95;;;28.73;;
48835;SDS011;62581;47.342;7.908;2023-02-10T00:43:00;61.38;;;27.63;;
48835;SDS011;62581;47.342;7.908;2023-02-10T00:45:27;64.80;;;28.77;;
48835;SDS011;62581;47.342;7.908;2023-02-10T00:47:54;65.07;;;29.02;;
48835;SDS011;62581;47.342;7.908;2023-02-10T00:50:22;67.70;;;30.33;;
48835;SDS011;62581;47.342;7.908;2023-02-10T00:52:49;67.43;;;30.10;;
48835;SDS011;62581;47.342;7.908;2023-02-10T00:55:16;63.25;;;27.85;;
48835;SDS011;62581;47.342;7.908;2023-02-10T00:57:43;64.82;;;29.98;;
48835;SDS011;62581;47.342;7.908;2023-02-10T01:00:10;66.20;;;28.75;;
48835;SDS011;62581;47.342;7.908;2023-02-10T01:02:38;66.78;;;28.83;;
48835;SDS011;62581;47.342;7.908;2023-02-10T01:05:05;67.45;;;29.73;;
48835;SDS011;62581;47.342;7.908;2023-02-10T01:07:33;63.50;;;28.38;;
48835;SDS011;62581;47.342;7.908;2023-02-10T01:10:00;63.53;;;29.17;;
48835;SDS011;62581;47.342;7.908;2023-02-10T01:12:27;65.70;;;29.08;;
48835;SDS011;62581;47.342;7.908;2023-02-10T01:14:54;62.72;;;29.02;;
48835;SDS011;62581;47.342;7.908;2023-02-10T01:17:21;68.40;;;28.92;;
48835;SDS011;62581;47.342;7.908;2023-02-10T01:19:48;65.25;;;29.20;;
48835;SDS011;62581;47.342;7.908;2023-02-10T01:22:16;67.27;;;29.10;;
48835;SDS011;62581;47.342;7.908;2023-02-10T01:24:44;65.63;;;29.10;;
48835;SDS011;62581;47.342;7.908;2023-02-10T01:27:11;66.78;;;28.27;;
48835;SDS011;62581;47.342;7.908;2023-02-10T01:29:38;67.53;;;28.98;;
48835;SDS011;62581;47.342;7.908;2023-02-10T01:32:05;64.45;;;27.48;;
48835;SDS011;62581;47.342;7.908;2023-02-10T01:34:32;61.45;;;27.40;;
48835;SDS011;62581;47.342;7.908;2023-02-10T01:36:59;65.70;;;27.92;;
48835;SDS011;62581;47.342;7.908;2023-02-10T01:39:26;67.53;;;28.13;;
48835;SDS011;62581;47.342;7.908;2023-02-10T01:41:54;61.33;;;29.13;;
48835;SDS011;62581;47.342;7.908;2023-02-10T01:47:26;58.58;;;27.02;;
48835;SDS011;62581;47.342;7.908;2023-02-10T01:49:53;63.92;;;28.83;;
48835;SDS011;62581;47.342;7.908;2023-02-10T01:52:20;67.05;;;29.05;;
48835;SDS011;62581;47.342;7.908;2023-02-10T01:54:53;58.67;;;27.20;;
48835;SDS011;62581;47.342;7.908;2023-02-10T01:57:24;58.15;;;27.38;;
48835;SDS011;62581;47.342;7.908;2023-02-10T01:59:52;64.32;;;27.92;;
48835;SDS011;62581;47.342;7.908;2023-02-10T02:02:19;63.03;;;27.27;;
48835;SDS011;62581;47.342;7.908;2023-02-10T02:04:47;45.42;;;21.42;;
48835;SDS011;62581;47.342;7.908;2023-02-10T02:07:16;64.18;;;28.30;;
48835;SDS011;62581;47.342;7.908;2023-02-10T02:12:15;61.70;;;25.65;;
48835;SDS011;62581;47.342;7.908;2023-02-10T02:14:52;63.88;;;27.90;;
48835;SDS011;62581;47.342;7.908;2023-02-10T02:17:25;68.35;;;28.55;;
48835;SDS011;62581;47.342;7.908;2023-02-10T02:20:08;59.60;;;27.27;;
48835;SDS011;62581;47.342;7.908;2023-02-10T02:23:17;60.78;;;27.15;;
48835;SDS011;62581;47.342;7.908;2023-02-10T02:25:57;65.97;;;27.83;;
48835;SDS011;62581;47.342;7.908;2023-02-10T02:28:39;63.00;;;27.17;;
48835;SDS011;62581;47.342;7.908;2023-02-10T02:31:35;64.50;;;28.10;;
48835;SDS011;62581;47.342;7.908;2023-02-10T02:34:18;65.93;;;28.10;;
48835;SDS011;62581;47.342;7.908;2023-02-10T02:36:52;66.38;;;28.35;;
48835;SDS011;62581;47.342;7.908;2023-02-10T02:39:23;69.35;;;29.52;;
48835;SDS011;62581;47.342;7.908;2023-02-10T02:41:58;65.38;;;29.02;;
48835;SDS011;62581;47.342;7.908;2023-02-10T02:44:37;66.20;;;28.25;;
48835;SDS011;62581;47.342;7.908;2023-02-10T02:47:07;64.03;;;27.23;;
48835;SDS011;62581;47.342;7.908;2023-02-10T02:49:41;63.65;;;27.55;;
48835;SDS011;62581;47.342;7.908;2023-02-10T02:52:17;56.03;;;26.65;;
48835;SDS011;62581;47.342;7.908;2023-02-10T02:54:54;66.03;;;27.27;;
48835;SDS011;62581;47.342;7.908;2023-02-10T02:57:31;70.07;;;28.98;;
48835;SDS011;62581;47.342;7.908;2023-02-10T03:00:07;67.07;;;28.95;;
48835;SDS011;62581;47.342;7.908;2023-02-10T03:02:38;73.05;;;28.15;;
48835;SDS011;62581;47.342;7.908;2023-02-10T03:05:06;70.40;;;28.35;;
48835;SDS011;62581;47.342;7.908;2023-02-10T03:07:34;66.85;;;29.88;;
48835;SDS011;62581;47.342;7.908;2023-02-10T03:10:01;71.05;;;28.33;;
48835;SDS011;62581;47.342;7.908;2023-02-10T03:12:28;74.68;;;30.17;;
48835;SDS011;62581;47.342;7.908;2023-02-10T03:14:55;72.78;;;29.95;;
48835;SDS011;62581;47.342;7.908;2023-02-10T03:17:22;71.80;;;29.85;;
48835;SDS011;62581;47.342;7.908;2023-02-10T03:19:50;64.30;;;29.08;;
48835;SDS011;62581;47.342;7.908;2023-02-10T03:22:17;71.25;;;29.77;;
48835;SDS011;62581;47.342;7.908;2023-02-10T03:24:44;77.22;;;29.05;;
48835;SDS011;62581;47.342;7.908;2023-02-10T03:27:11;66.50;;;29.88;;
48835;SDS011;62581;47.342;7.908;2023-02-10T03:29:38;71.40;;;29.17;;
48835;SDS011;62581;47.342;7.908;2023-02-10T03:32:05;65.55;;;27.88;;
48835;SDS011;62581;47.342;7.908;2023-02-10T03:34:32;64.30;;;26.98;;
48835;SDS011;62581;47.342;7.908;2023-02-10T03:37:00;67.22;;;29.80;;
48835;SDS011;62581;47.342;7.908;2023-02-10T03:39:27;68.90;;;28.98;;
48835;SDS011;62581;47.342;7.908;2023-02-10T03:41:54;67.88;;;29.25;;
48835;SDS011;62581;47.342;7.908;2023-02-10T03:44:21;65.28;;;28.45;;
48835;SDS011;62581;47.342;7.908;2023-02-10T03:46:48;63.95;;;28.33;;
48835;SDS011;62581;47.342;7.908;2023-02-10T03:49:15;65.57;;;28.25;;
48835;SDS011;62581;47.342;7.908;2023-02-10T03:51:42;70.63;;;31.00;;
48835;SDS011;62581;47.342;7.908;2023-02-10T03:54:10;69.30;;;29.50;;
48835;SDS011;62581;47.342;7.908;2023-02-10T03:56:37;64.15;;;28.35;;
48835;SDS011;62581;47.342;7.908;2023-02-10T03:59:04;64.75;;;27.67;;
48835;SDS011;62581;47.342;7.908;2023-02-10T04:01:32;68.13;;;28.17;;
48835;SDS011;62581;47.342;7.908;2023-02-10T04:03:59;66.40;;;28.38;;
48835;SDS011;62581;47.342;7.908;2023-02-10T04:06:26;69.43;;;28.33;;
48835;SDS011;62581;47.342;7.908;2023-02-10T04:08:53;64.60;;;27.13;;
48835;SDS011;62581;47.342;7.908;2023-02-10T04:11:22;59.20;;;26.80;;
48835;SDS011;62581;47.342;7.908;2023-02-10T04:13:49;68.13;;;27.20;;
48835;SDS011;62581;47.342;7.908;2023-02-10T04:16:16;64.43;;;28.70;;
48835;SDS011;62581;47.342;7.908;2023-02-10T04:18:44;64.40;;;26.67;;
48835;SDS011;62581;47.342;7.908;2023-02-10T04:21:11;69.55;;;29.27;;
48835;SDS011;62581;47.342;7.908;2023-02-10T04:23:39;63.83;;;27.02;;
48835;SDS011;62581;47.342;7.908;2023-02-10T04:26:06;66.18;;;28.10;;
48835;SDS011;62581;47.342;7.908;2023-02-10T04:28:34;69.38;;;28.67;;
48835;SDS011;62581;47.342;7.908;2023-02-10T04:31:01;67.53;;;27.40;;
48835;SDS011;62581;47.342;7.908;2023-02-10T04:33:30;65.65;;;26.95;;
48835;SDS011;62581;47.342;7.908;2023-02-10T04:35:57;65.10;;;26.77;;
48835;SDS011;62581;47.342;7.908;2023-02-10T04:38:24;67.03;;;28.10;;
48835;SDS011;62581;47.342;7.908;2023-02-10T04:40:51;68.63;;;28.15;;
48835;SDS011;62581;47.342;7.908;2023-02-10T04:43:18;65.18;;;27.38;;
48835;SDS011;62581;47.342;7.908;2023-02-10T04:45:46;70.80;;;28.63;;
48835;SDS011;62581;47.342;7.908;2023-02-10T04:48:13;68.40;;;26.25;;
48835;SDS011;62581;47.342;7.908;2023-02-10T04:50:41;67.53;;;27.02;;
48835;SDS011;62581;47.342;7.908;2023-02-10T04:53:08;73.18;;;28.05;;
48835;SDS011;62581;47.342;7.908;2023-02-10T04:55:35;71.35;;;26.75;;
48835;SDS011;62581;47.342;7.908;2023-02-10T04:58:02;70.35;;;28.48;;
48835;SDS011;62581;47.342;7.908;2023-02-10T05:00:29;61.90;;;25.98;;
48835;SDS011;62581;47.342;7.908;2023-02-10T05:02:58;62.58;;;25.40;;
48835;SDS011;62581;47.342;7.908;2023-02-10T05:05:25;61.90;;;26.13;;
48835;SDS011;62581;47.342;7.908;2023-02-10T05:07:52;64.07;;;26.48;;
48835;SDS011;62581;47.342;7.908;2023-02-10T05:10:20;62.20;;;26.58;;
48835;SDS011;62581;47.342;7.908;2023-02-10T05:12:47;59.22;;;26.50;;
48835;SDS011;62581;47.342;7.908;2023-02-10T05:15:14;59.47;;;25.75;;
48835;SDS011;62581;47.342;7.908;2023-02-10T05:17:42;63.03;;;25.58;;
48835;SDS011;62581;47.342;7.908;2023-02-10T05:20:10;63.08;;;25.75;;
48835;SDS011;62581;47.342;7.908;2023-02-10T05:25:05;58.03;;;24.67;;
48835;SDS011;62581;47.342;7.908;2023-02-10T05:27:33;60.40;;;24.05;;
48835;SDS011;62581;47.342;7.908;2023-02-10T05:30:00;67.55;;;24.70;;
48835;SDS011;62581;47.342;7.908;2023-02-10T05:32:27;62.33;;;26.58;;
48835;SDS011;62581;47.342;7.908;2023-02-10T05:34:54;57.53;;;24.77;;
48835;SDS011;62581;47.342;7.908;2023-02-10T05:37:22;54.38;;;24.45;;
48835;SDS011;62581;47.342;7.908;2023-02-10T05:39:49;61.80;;;25.80;;
48835;SDS011;62581;47.342;7.908;2023-02-10T05:42:16;65.93;;;27.20;;
48835;SDS011;62581;47.342;7.908;2023-02-10T05:44:43;70.40;;;29.17;;
48835;SDS011;62581;47.342;7.908;2023-02-10T05:47:10;63.10;;;27.42;;
48835;SDS011;62581;47.342;7.908;2023-02-10T05:49:37;61.70;;;26.83;;
48835;SDS011;62581;47.342;7.908;2023-02-10T05:52:04;63.15;;;26.75;;
48835;SDS011;62581;47.342;7.908;2023-02-10T05:54:33;65.07;;;27.00;;
48835;SDS011;62581;47.342;7.908;2023-02-10T05:59:27;74.70;;;26.10;;
48835;SDS011;62581;47.342;7.908;2023-02-10T06:01:54;61.97;;;26.10;;
48835;SDS011;62581;47.342;7.908;2023-02-10T06:04:21;57.92;;;27.10;;
48835;SDS011;62581;47.342;7.908;2023-02-10T06:06:48;68.95;;;28.30;;
48835;SDS011;62581;47.342;7.908;2023-02-10T06:09:15;61.80;;;26.58;;
48835;SDS011;62581;47.342;7.908;2023-02-10T06:11:43;70.78;;;26.77;;
48835;SDS011;62581;47.342;7.908;2023-02-10T06:14:10;67.22;;;28.05;;
48835;SDS011;62581;47.342;7.908;2023-02-10T06:16:37;69.75;;;27.98;;
48835;SDS011;62581;47.342;7.908;2023-02-10T06:19:04;62.17;;;24.92;;
48835;SDS011;62581;47.342;7.908;2023-02-10T06:21:31;75.68;;;28.30;;
48835;SDS011;62581;47.342;7.908;2023-02-10T06:23:58;75.45;;;28.30;;
48835;SDS011;62581;47.342;7.908;2023-02-10T06:26:25;72.65;;;29.75;;
48835;SDS011;62581;47.342;7.908;2023-02-10T06:28:54;75.72;;;28.42;;
48835;SDS011;62581;47.342;7.908;2023-02-10T06:31:21;70.03;;;28.30;;
48835;SDS011;62581;47.342;7.908;2023-02-10T06:36:17;67.75;;;26.73;;
48835;SDS011;62581;47.342;7.908;2023-02-10T06:38:44;72.93;;;28.80;;
48835;SDS011;62581;47.342;7.908;2023-02-10T06:41:12;70.63;;;26.70;;
48835;SDS011;62581;47.342;7.908;2023-02-10T06:43:40;71.17;;;28.47;;
48835;SDS011;62581;47.342;7.908;2023-02-10T06:46:09;64.82;;;27.88;;
48835;SDS011;62581;47.342;7.908;2023-02-10T06:48:38;67.25;;;28.92;;
48835;SDS011;62581;47.342;7.908;2023-02-10T06:51:05;69.18;;;27.55;;
48835;SDS011;62581;47.342;7.908;2023-02-10T06:53:32;66.57;;;27.52;;
48835;SDS011;62581;47.342;7.908;2023-02-10T06:55:59;70.60;;;28.77;;
48835;SDS011;62581;47.342;7.908;2023-02-10T06:58:26;65.03;;;28.23;;
48835;SDS011;62581;47.342;7.908;2023-02-10T07:00:53;71.65;;;29.23;;
48835;SDS011;62581;47.342;7.908;2023-02-10T07:03:21;69.00;;;28.30;;
48835;SDS011;62581;47.342;7.908;2023-02-10T07:05:48;70.28;;;27.88;;
48835;SDS011;62581;47.342;7.908;2023-02-10T07:08:16;53.72;;;21.00;;
48835;SDS011;62581;47.342;7.908;2023-02-10T07:10:43;80.25;;;29.52;;
48835;SDS011;62581;47.342;7.908;2023-02-10T07:13:10;71.38;;;29.15;;
48835;SDS011;62581;47.342;7.908;2023-02-10T07:15:37;67.97;;;28.65;;
48835;SDS011;62581;47.342;7.908;2023-02-10T07:18:04;68.68;;;27.60;;
48835;SDS011;62581;47.342;7.908;2023-02-10T07:20:32;72.38;;;30.35;;
48835;SDS011;62581;47.342;7.908;2023-02-10T07:25:26;74.22;;;29.00;;
48835;SDS011;62581;47.342;7.908;2023-02-10T07:27:53;69.03;;;29.80;;
48835;SDS011;62581;47.342;7.908;2023-02-10T07:30:20;71.88;;;30.40;;
48835;SDS011;62581;47.342;7.908;2023-02-10T07:32:47;72.65;;;29.73;;
48835;SDS011;62581;47.342;7.908;2023-02-10T07:35:14;70.72;;;29.42;;
48835;SDS011;62581;47.342;7.908;2023-02-10T07:37:42;69.50;;;28.13;;
48835;SDS011;62581;47.342;7.908;2023-02-10T07:42:36;62.45;;;26.90;;
48835;SDS011;62581;47.342;7.908;2023-02-10T07:45:03;68.13;;;27.05;;
48835;SDS011;62581;47.342;7.908;2023-02-10T07:47:31;66.05;;;27.27;;
48835;SDS011;62581;47.342;7.908;2023-02-10T07:49:58;67.05;;;27.40;;
48835;SDS011;62581;47.342;7.908;2023-02-10T07:52:25;59.40;;;27.38;;
48835;SDS011;62581;47.342;7.908;2023-02-10T07:54:53;69.40;;;28.00;;
48835;SDS011;62581;47.342;7.908;2023-02-10T07:57:20;62.38;;;26.65;;
48835;SDS011;62581;47.342;7.908;2023-02-10T07:59:47;66.88;;;27.77;;
48835;SDS011;62581;47.342;7.908;2023-02-10T08:02:14;62.40;;;27.40;;
48835;SDS011;62581;47.342;7.908;2023-02-10T08:04:41;60.15;;;26.05;;
48835;SDS011;62581;47.342;7.908;2023-02-10T08:07:08;65.63;;;27.73;;
48835;SDS011;62581;47.342;7.908;2023-02-10T08:09:37;60.58;;;27.15;;
48835;SDS011;62581;47.342;7.908;2023-02-10T08:12:06;63.95;;;25.60;;
48835;SDS011;62581;47.342;7.908;2023-02-10T08:16:59;66.72;;;25.73;;
48835;SDS011;62581;47.342;7.908;2023-02-10T08:19:27;59.75;;;25.52;;
48835;SDS011;62581;47.342;7.908;2023-02-10T08:21:54;64.70;;;26.60;;
48835;SDS011;62581;47.342;7.908;2023-02-10T08:24:21;58.35;;;24.65;;
48835;SDS011;62581;47.342;7.908;2023-02-10T08:26:48;62.90;;;25.88;;
48835;SDS011;62581;47.342;7.908;2023-02-10T08:29:16;63.53;;;26.77;;
48835;SDS011;62581;47.342;7.908;2023-02-10T08:31:43;66.85;;;27.27;;
48835;SDS011;62581;47.342;7.908;2023-02-10T08:34:14;52.78;;;25.40;;
48835;SDS011;62581;47.342;7.908;2023-02-10T08:36:42;57.95;;;25.25;;
48835;SDS011;62581;47.342;7.908;2023-02-10T08:39:09;58.33;;;26.30;;
48835;SDS011;62581;47.342;7.908;2023-02-10T08:41:36;56.65;;;26.00;;
48835;SDS011;62581;47.342;7.908;2023-02-10T08:44:04;61.17;;;25.55;;
48835;SDS011;62581;47.342;7.908;2023-02-10T08:46:33;59.60;;;26.67;;
48835;SDS011;62581;47.342;7.908;2023-02-10T08:49:00;62.95;;;26.75;;
48835;SDS011;62581;47.342;7.908;2023-02-10T08:51:27;56.47;;;26.33;;
48835;SDS011;62581;47.342;7.908;2023-02-10T08:53:55;57.85;;;26.83;;
48835;SDS011;62581;47.342;7.908;2023-02-10T08:56:23;63.30;;;25.80;;
48835;SDS011;62581;47.342;7.908;2023-02-10T08:58:50;53.28;;;26.00;;
48835;SDS011;62581;47.342;7.908;2023-02-10T09:01:18;60.08;;;26.27;;
48835;SDS011;62581;47.342;7.908;2023-02-10T09:03:48;59.65;;;27.00;;
48835;SDS011;62581;47.342;7.908;2023-02-10T09:06:16;64.50;;;28.50;;
48835;SDS011;62581;47.342;7.908;2023-02-10T09:08:45;67.85;;;27.58;;
48835;SDS011;62581;47.342;7.908;2023-02-10T09:11:13;59.03;;;27.10;;
48835;SDS011;62581;47.342;7.908;2023-02-10T09:13:41;53.97;;;26.70;;
48835;SDS011;62581;47.342;7.908;2023-02-10T09:16:08;59.60;;;28.48;;
48835;SDS011;62581;47.342;7.908;2023-02-10T09:18:35;58.50;;;26.67;;
48835;SDS011;62581;47.342;7.908;2023-02-10T09:21:03;61.70;;;27.80;;
48835;SDS011;62581;47.342;7.908;2023-02-10T09:25:58;62.80;;;27.27;;
48835;SDS011;62581;47.342;7.908;2023-02-10T09:30:53;62.72;;;25.83;;
48835;SDS011;62581;47.342;7.908;2023-02-10T09:33:20;60.08;;;28.30;;
48835;SDS011;62581;47.342;7.908;2023-02-10T09:35:47;61.58;;;27.33;;
48835;SDS011;62581;47.342;7.908;2023-02-10T09:38:15;54.55;;;27.98;;
48835;SDS011;62581;47.342;7.908;2023-02-10T09:40:46;58.70;;;27.85;;
48835;SDS011;62581;47.342;7.908;2023-02-10T09:43:19;63.15;;;29.25;;
48835;SDS011;62581;47.342;7.908;2023-02-10T09:45:56;55.15;;;26.63;;
48835;SDS011;62581;47.342;7.908;2023-02-10T09:48:29;53.17;;;27.00;;
48835;SDS011;62581;47.342;7.908;2023-02-10T09:51:05;58.00;;;27.50;;
48835;SDS011;62581;47.342;7.908;2023-02-10T09:53:41;54.10;;;27.85;;
48835;SDS011;62581;47.342;7.908;2023-02-10T09:56:09;59.50;;;27.88;;
48835;SDS011;62581;47.342;7.908;2023-02-10T09:58:41;63.33;;;28.17;;
48835;SDS011;62581;47.342;7.908;2023-02-10T10:01:12;57.90;;;27.85;;
48835;SDS011;62581;47.342;7.908;2023-02-10T10:03:43;52.17;;;28.08;;
48835;SDS011;62581;47.342;7.908;2023-02-10T10:06:19;54.58;;;27.15;;
48835;SDS011;62581;47.342;7.908;2023-02-10T10:09:01;51.80;;;26.20;;
48835;SDS011;62581;47.342;7.908;2023-02-10T10:11:39;64.20;;;28.92;;
48835;SDS011;62581;47.342;7.908;2023-02-10T10:14:14;56.17;;;29.02;;
48835;SDS011;62581;47.342;7.908;2023-02-10T10:16:46;59.63;;;28.65;;
48835;SDS011;62581;47.342;7.908;2023-02-10T10:19:32;64.47;;;29.90;;
48835;SDS011;62581;47.342;7.908;2023-02-10T10:22:18;61.92;;;29.15;;
48835;SDS011;62581;47.342;7.908;2023-02-10T10:25:02;59.05;;;28.73;;
48835;SDS011;62581;47.342;7.908;2023-02-10T10:27:52;59.60;;;29.50;;
48835;SDS011;62581;47.342;7.908;2023-02-10T10:30:28;56.95;;;29.77;;
48835;SDS011;62581;47.342;7.908;2023-02-10T10:33:02;53.30;;;28.75;;
48835;SDS011;62581;47.342;7.908;2023-02-10T10:35:40;60.80;;;30.38;;
48835;SDS011;62581;47.342;7.908;2023-02-10T10:38:10;53.35;;;27.75;;
48835;SDS011;62581;47.342;7.908;2023-02-10T10:40:41;52.42;;;27.52;;
48835;SDS011;62581;47.342;7.908;2023-02-10T10:43:11;58.25;;;28.63;;
48835;SDS011;62581;47.342;7.908;2023-02-10T10:45:44;57.95;;;28.25;;
48835;SDS011;62581;47.342;7.908;2023-02-10T10:48:15;50.53;;;26.33;;
48835;SDS011;62581;47.342;7.908;2023-02-10T10:50:49;55.00;;;28.10;;
48835;SDS011;62581;47.342;7.908;2023-02-10T10:53:16;54.63;;;28.13;;
48835;SDS011;62581;47.342;7.908;2023-02-10T10:55:50;57.13;;;26.85;;
48835;SDS011;62581;47.342;7.908;2023-02-10T10:58:22;51.80;;;27.15;;
48835;SDS011;62581;47.342;7.908;2023-02-10T11:00:52;51.60;;;26.80;;
48835;SDS011;62581;47.342;7.908;2023-02-10T11:03:20;51.83;;;26.65;;
48835;SDS011;62581;47.342;7.908;2023-02-10T11:05:56;56.85;;;27.08;;
48835;SDS011;62581;47.342;7.908;2023-02-10T11:08:26;49.88;;;26.83;;
48835;SDS011;62581;47.342;7.908;2023-02-10T11:10:58;51.88;;;27.63;;
48835;SDS011;62581;47.342;7.908;2023-02-10T11:13:28;53.25;;;27.30;;
48835;SDS011;62581;47.342;7.908;2023-02-10T11:15:58;51.55;;;27.80;;
48835;SDS011;62581;47.342;7.908;2023-02-10T11:18:27;50.65;;;27.10;;
48835;SDS011;62581;47.342;7.908;2023-02-10T11:20:55;51.55;;;26.95;;
48835;SDS011;62581;47.342;7.908;2023-02-10T11:23:24;46.92;;;25.45;;
48835;SDS011;62581;47.342;7.908;2023-02-10T11:28:26;50.03;;;26.42;;
48835;SDS011;62581;47.342;7.908;2023-02-10T11:30:55;54.72;;;27.80;;
48835;SDS011;62581;47.342;7.908;2023-02-10T11:33:26;52.20;;;26.25;;
48835;SDS011;62581;47.342;7.908;2023-02-10T11:35:56;46.95;;;25.02;;
48835;SDS011;62581;47.342;7.908;2023-02-10T11:38:25;43.40;;;22.98;;
48835;SDS011;62581;47.342;7.908;2023-02-10T11:40:53;43.08;;;22.50;;
48835;SDS011;62581;47.342;7.908;2023-02-10T11:43:25;38.70;;;22.10;;
48835;SDS011;62581;47.342;7.908;2023-02-10T11:45:56;40.67;;;21.63;;
48835;SDS011;62581;47.342;7.908;2023-02-10T11:48:24;36.15;;;20.92;;
48835;SDS011;62581;47.342;7.908;2023-02-10T11:51:03;36.40;;;21.30;;
48835;SDS011;62581;47.342;7.908;2023-02-10T11:53:32;32.45;;;18.77;;
48835;SDS011;62581;47.342;7.908;2023-02-10T11:56:03;31.40;;;20.13;;
48835;SDS011;62581;47.342;7.908;2023-02-10T11:58:41;35.95;;;20.30;;
48835;SDS011;62581;47.342;7.908;2023-02-10T12:01:33;32.65;;;19.25;;
48835;SDS011;62581;47.342;7.908;2023-02-10T12:04:14;29.13;;;19.17;;
48835;SDS011;62581;47.342;7.908;2023-02-10T12:07:05;33.15;;;20.17;;
48835;SDS011;62581;47.342;7.908;2023-02-10T12:09:37;35.40;;;20.75;;
48835;SDS011;62581;47.342;7.908;2023-02-10T12:12:12;31.73;;;20.17;;
48835;SDS011;62581;47.342;7.908;2023-02-10T12:14:49;32.58;;;19.90;;
48835;SDS011;62581;47.342;7.908;2023-02-10T12:17:24;30.58;;;19.45;;
48835;SDS011;62581;47.342;7.908;2023-02-10T12:20:01;28.35;;;18.83;;
48835;SDS011;62581;47.342;7.908;2023-02-10T12:22:43;26.50;;;18.52;;
48835;SDS011;62581;47.342;7.908;2023-02-10T12:25:22;28.75;;;17.48;;
48835;SDS011;62581;47.342;7.908;2023-02-10T12:27:57;29.77;;;17.50;;
48835;SDS011;62581;47.342;7.908;2023-02-10T12:30:31;25.02;;;17.30;;
48835;SDS011;62581;47.342;7.908;2023-02-10T12:33:14;25.42;;;17.05;;
48835;SDS011;62581;47.342;7.908;2023-02-10T12:36:00;24.55;;;16.90;;
48835;SDS011;62581;47.342;7.908;2023-02-10T12:38:39;23.63;;;15.45;;
48835;SDS011;62581;47.342;7.908;2023-02-10T12:41:18;23.25;;;15.75;;
48835;SDS011;62581;47.342;7.908;2023-02-10T12:43:58;22.17;;;15.73;;
48835;SDS011;62581;47.342;7.908;2023-02-10T12:46:39;19.85;;;14.95;;
48835;SDS011;62581;47.342;7.908;2023-02-10T12:49:24;23.30;;;15.48;;
48835;SDS011;62581;47.342;7.908;2023-02-10T12:52:02;23.42;;;16.08;;
48835;SDS011;62581;47.342;7.908;2023-02-10T12:54:35;22.58;;;16.92;;
48835;SDS011;62581;47.342;7.908;2023-02-10T12:57:08;24.83;;;16.15;;
48835;SDS011;62581;47.342;7.908;2023-02-10T12:59:43;22.33;;;16.45;;
48835;SDS011;62581;47.342;7.908;2023-02-10T13:02:17;23.30;;;15.77;;
48835;SDS011;62581;47.342;7.908;2023-02-10T13:04:48;22.70;;;16.10;;
48835;SDS011;62581;47.342;7.908;2023-02-10T13:07:24;22.38;;;15.25;;
48835;SDS011;62581;47.342;7.908;2023-02-10T13:09:59;22.08;;;16.20;;
48835;SDS011;62581;47.342;7.908;2023-02-10T13:12:35;23.20;;;15.50;;
48835;SDS011;62581;47.342;7.908;2023-02-10T13:15:12;21.98;;;16.55;;
48835;SDS011;62581;47.342;7.908;2023-02-10T13:17:46;22.77;;;16.67;;
48835;SDS011;62581;47.342;7.908;2023-02-10T13:20:34;21.48;;;15.48;;
48835;SDS011;62581;47.342;7.908;2023-02-10T13:23:11;22.52;;;15.88;;
48835;SDS011;62581;47.342;7.908;2023-02-10T13:25:49;21.08;;;15.52;;
48835;SDS011;62581;47.342;7.908;2023-02-10T13:28:25;22.02;;;15.65;;
48835;SDS011;62581;47.342;7.908;2023-02-10T13:31:05;21.35;;;14.27;;
48835;SDS011;62581;47.342;7.908;2023-02-10T13:33:49;23.10;;;14.02;;
48835;SDS011;62581;47.342;7.908;2023-02-10T13:36:25;18.83;;;13.68;;
48835;SDS011;62581;47.342;7.908;2023-02-10T13:38:59;18.30;;;12.27;;
48835;SDS011;62581;47.342;7.908;2023-02-10T13:41:30;19.05;;;12.45;;
48835;SDS011;62581;47.342;7.908;2023-02-10T13:44:15;18.23;;;12.60;;
48835;SDS011;62581;47.342;7.908;2023-02-10T13:46:50;16.40;;;11.68;;
48835;SDS011;62581;47.342;7.908;2023-02-10T13:49:22;18.83;;;11.27;;
48835;SDS011;62581;47.342;7.908;2023-02-10T13:51:50;17.08;;;10.75;;
48835;SDS011;62581;47.342;7.908;2023-02-10T13:54:27;15.40;;;11.60;;
48835;SDS011;62581;47.342;7.908;2023-02-10T13:56:58;19.42;;;11.52;;
48835;SDS011;62581;47.342;7.908;2023-02-10T13:59:35;17.87;;;12.40;;
48835;SDS011;62581;47.342;7.908;2023-02-10T14:02:11;18.10;;;13.13;;
48835;SDS011;62581;47.342;7.908;2023-02-10T14:04:47;19.55;;;13.25;;
48835;SDS011;62581;47.342;7.908;2023-02-10T14:07:17;20.02;;;13.25;;
48835;SDS011;62581;47.342;7.908;2023-02-10T14:10:03;18.10;;;13.25;;
48835;SDS011;62581;47.342;7.908;2023-02-10T14:12:54;20.00;;;14.55;;
48835;SDS011;62581;47.342;7.908;2023-02-10T14:15:23;19.50;;;13.45;;
48835;SDS011;62581;47.342;7.908;2023-02-10T14:17:53;20.83;;;14.50;;
48835;SDS011;62581;47.342;7.908;2023-02-10T14:20:25;20.10;;;13.73;;
48835;SDS011;62581;47.342;7.908;2023-02-10T14:22:55;21.90;;;13.85;;
48835;SDS011;62581;47.342;7.908;2023-02-10T14:25:34;19.15;;;13.60;;
48835;SDS011;62581;47.342;7.908;2023-02-10T14:28:05;18.67;;;13.75;;
48835;SDS011;62581;47.342;7.908;2023-02-10T14:30:44;19.88;;;13.77;;
48835;SDS011;62581;47.342;7.908;2023-02-10T14:33:20;20.75;;;13.93;;
48835;SDS011;62581;47.342;7.908;2023-02-10T14:35:53;19.55;;;13.77;;
48835;SDS011;62581;47.342;7.908;2023-02-10T14:38:22;18.83;;;14.13;;
48835;SDS011;62581;47.342;7.908;2023-02-10T14:40:51;20.70;;;14.45;;
48835;SDS011;62581;47.342;7.908;2023-02-10T14:45:51;18.17;;;13.85;;
48835;SDS011;62581;47.342;7.908;2023-02-10T14:48:19;21.13;;;14.63;;
48835;SDS011;62581;47.342;7.908;2023-02-10T14:51:06;23.33;;;15.00;;
48835;SDS011;62581;47.342;7.908;2023-02-10T14:53:43;17.33;;;14.00;;
48835;SDS011;62581;47.342;7.908;2023-02-10T14:56:15;21.40;;;14.77;;
48835;SDS011;62581;47.342;7.908;2023-02-10T14:58:44;20.80;;;15.60;;
48835;SDS011;62581;47.342;7.908;2023-02-10T15:01:14;20.10;;;14.43;;
48835;SDS011;62581;47.342;7.908;2023-02-10T15:03:46;20.02;;;13.63;;
48835;SDS011;62581;47.342;7.908;2023-02-10T15:06:16;17.23;;;13.67;;
48835;SDS011;62581;47.342;7.908;2023-02-10T15:08:46;19.98;;;14.75;;
48835;SDS011;62581;47.342;7.908;2023-02-10T15:11:18;20.65;;;13.93;;